createdAt,value
2022-08-11T15:22:17.815Z,3.28
2022-08-11T15:24:44.684Z,3.20
2022-08-11T15:27:33.569Z,3.17
2022-08-11T15:30:32.277Z,2.67
2022-08-11T15:33:21.814Z,3.05
2022-08-11T15:36:07.323Z,3.42
2022-08-11T15:38:36.252Z,3.35
2022-08-11T15:41:21.650Z,3.15
2022-08-11T15:44:11.863Z,3.40
2022-08-11T15:46:38.703Z,3.03
2022-08-11T15:49:12.727Z,2.92
2022-08-11T15:51:51.906Z,3.40
2022-08-11T15:54:20.170Z,3.03
2022-08-11T15:56:49.656Z,3.03
2022-08-11T15:59:43.261Z,3.20
2022-08-11T16:02:16.306Z,3.00
2022-08-11T16:04:44.444Z,3.38
2022-08-11T16:07:12.952Z,2.70
2022-08-11T16:10:00.230Z,3.13
2022-08-11T16:12:29.431Z,3.10
2022-08-11T16:15:20.907Z,3.30
2022-08-11T16:17:50.598Z,4.15
2022-08-11T16:20:19.811Z,3.38
2022-08-11T16:22:55.304Z,2.88
2022-08-11T16:27:03.157Z,3.25
2022-08-11T16:28:15.696Z,2.75
2022-08-11T16:30:44.317Z,3.08
2022-08-11T16:33:48.646Z,3.50
2022-08-11T16:36:16.471Z,3.05
2022-08-11T16:38:43.315Z,3.17
2022-08-11T16:41:12.615Z,3.20
2022-08-11T16:44:05.144Z,3.35
2022-08-11T16:46:38.129Z,3.95
2022-08-11T16:49:09.187Z,3.97
2022-08-11T16:51:36.099Z,3.40
2022-08-11T16:54:05.545Z,3.50
2022-08-11T16:56:43.645Z,3.63
2022-08-11T16:59:20.623Z,3.28
2022-08-11T17:02:06.848Z,3.92
2022-08-11T17:05:10.077Z,3.47
2022-08-11T17:08:11.146Z,4.35
2022-08-11T17:11:23.578Z,3.53
2022-08-11T17:13:58.818Z,3.30
2022-08-11T17:16:32.410Z,3.63
2022-08-11T17:19:05.618Z,3.88
2022-08-11T17:22:02.302Z,3.55
2022-08-11T17:24:29.657Z,3.70
2022-08-11T17:26:59.154Z,3.47
2022-08-11T17:29:54.016Z,3.30
2022-08-11T17:33:07.203Z,3.22
2022-08-11T17:35:39.682Z,3.60
2022-08-11T17:38:10.010Z,3.85
2022-08-11T17:41:01.865Z,3.83
2022-08-11T17:43:47.790Z,3.80
2022-08-11T17:46:37.294Z,4.45
2022-08-11T17:49:08.706Z,4.10
2022-08-11T17:51:54.385Z,3.92
2022-08-11T17:54:40.163Z,3.67
2022-08-11T17:57:27.534Z,5.00
2022-08-11T17:59:56.940Z,4.40
2022-08-11T18:02:48.304Z,4.13
2022-08-11T18:05:17.386Z,3.85
2022-08-11T18:08:03.132Z,4.47
2022-08-11T18:10:49.963Z,3.70
2022-08-11T18:13:37.423Z,3.55
2022-08-11T18:16:23.031Z,3.97
2022-08-11T18:19:08.323Z,4.35
2022-08-11T18:22:14.247Z,4.28
2022-08-11T18:25:02.851Z,4.50
2022-08-11T18:27:50.097Z,4.15
2022-08-11T18:30:35.227Z,3.75
2022-08-11T18:33:56.778Z,3.85
2022-08-11T18:36:27.010Z,3.65
2022-08-11T18:39:12.247Z,4.25
2022-08-11T18:41:57.523Z,4.07
2022-08-11T18:44:45.125Z,3.38
2022-08-11T18:47:31.258Z,4.22
2022-08-11T18:50:21.075Z,3.72
2022-08-11T18:53:24.177Z,4.38
2022-08-11T18:56:09.442Z,3.55
2022-08-11T18:58:54.725Z,3.97
2022-08-11T19:01:44.210Z,3.80
2022-08-11T19:04:31.580Z,4.25
2022-08-11T19:07:23.411Z,4.75
2022-08-11T19:10:08.704Z,4.53
2022-08-11T19:12:56.414Z,4.60
2022-08-11T19:15:41.919Z,4.38
2022-08-11T19:18:28.540Z,4.45
2022-08-11T19:21:13.839Z,4.88
2022-08-11T19:24:02.174Z,4.70
2022-08-11T19:26:47.906Z,4.32
2022-08-11T19:30:12.361Z,4.32
2022-08-11T19:32:40.651Z,4.22
2022-08-11T19:35:26.179Z,4.72
2022-08-11T19:38:11.580Z,4.18
2022-08-11T19:40:57.999Z,4.00
2022-08-11T19:43:43.778Z,4.15
2022-08-11T19:46:28.995Z,4.55
2022-08-11T19:49:15.154Z,4.03
2022-08-11T19:52:00.501Z,4.95
2022-08-11T19:54:47.290Z,4.80
2022-08-11T19:57:37.096Z,4.13
2022-08-11T20:00:25.706Z,4.68
2022-08-11T20:03:17.029Z,4.50
2022-08-11T20:06:02.637Z,4.43
2022-08-11T20:08:48.161Z,4.47
2022-08-11T20:11:33.439Z,4.22
2022-08-11T20:14:18.653Z,4.45
2022-08-11T20:17:03.985Z,4.53
2022-08-11T20:19:56.495Z,4.38
2022-08-11T20:22:43.679Z,4.38
2022-08-11T20:25:29.139Z,4.45
2022-08-11T20:28:14.570Z,4.50
2022-08-11T20:31:02.389Z,4.68
2022-08-11T20:33:48.726Z,5.28
2022-08-11T20:36:34.069Z,3.80
2022-08-11T20:39:19.917Z,5.15
2022-08-11T20:42:06.183Z,4.53
2022-08-11T20:44:52.419Z,6.32
2022-08-11T20:47:59.190Z,4.90
2022-08-11T20:50:45.913Z,4.20
2022-08-11T20:53:35.769Z,3.80
2022-08-11T20:56:22.275Z,3.70
2022-08-11T20:59:18.875Z,4.40
2022-08-11T21:02:09.624Z,3.97
2022-08-11T21:04:57.695Z,4.05
2022-08-11T21:07:57.275Z,4.55
2022-08-11T21:10:52.260Z,4.28
2022-08-11T21:13:39.524Z,4.03
2022-08-11T21:16:27.308Z,4.22
2022-08-11T21:19:15.945Z,3.65
2022-08-11T21:22:01.162Z,3.75
2022-08-11T21:24:49.071Z,3.90
2022-08-11T21:27:35.118Z,3.30
2022-08-11T21:30:20.443Z,4.45
2022-08-11T21:33:05.670Z,4.22
2022-08-11T21:35:50.827Z,4.32
2022-08-11T21:38:35.991Z,4.88
2022-08-11T21:41:21.182Z,3.70
2022-08-11T21:44:08.600Z,5.25
2022-08-11T21:46:54.912Z,4.07
2022-08-11T21:49:41.005Z,4.32
2022-08-11T21:52:26.086Z,4.70
2022-08-11T21:55:11.299Z,4.90
2022-08-11T21:57:56.253Z,4.07
2022-08-11T22:00:41.614Z,4.40
2022-08-11T22:03:27.096Z,4.75
2022-08-11T22:06:12.798Z,4.50
2022-08-11T22:08:57.930Z,4.55
2022-08-11T22:11:43.101Z,4.30
2022-08-11T22:14:28.496Z,4.57
2022-08-11T22:17:13.757Z,4.97
2022-08-11T22:20:00.956Z,4.70
2022-08-11T22:22:52.059Z,4.53
2022-08-11T22:25:44.259Z,4.60
2022-08-11T22:28:40.334Z,5.20
2022-08-11T22:31:26.222Z,4.32
2022-08-11T22:34:11.290Z,4.15
2022-08-11T22:36:56.420Z,4.60
2022-08-11T22:39:42.211Z,4.53
2022-08-11T22:42:33.076Z,4.15
2022-08-11T22:45:20.030Z,4.03
2022-08-11T22:48:06.280Z,4.20
2022-08-11T22:50:51.974Z,4.30
2022-08-11T22:53:57.950Z,5.15
2022-08-11T22:56:43.063Z,4.05
2022-08-11T22:59:28.290Z,4.43
2022-08-11T23:02:13.472Z,4.93
2022-08-11T23:04:59.171Z,3.65
2022-08-11T23:07:50.284Z,4.00
2022-08-11T23:10:38.678Z,5.47
2022-08-11T23:13:24.818Z,4.10
2022-08-11T23:16:10.627Z,5.20
2022-08-11T23:18:56.707Z,4.03
2022-08-11T23:21:42.145Z,4.93
2022-08-11T23:24:27.839Z,4.70
2022-08-11T23:27:13.143Z,4.82
2022-08-11T23:29:58.276Z,4.43
2022-08-11T23:32:44.389Z,4.70
2022-08-11T23:35:38.916Z,4.32
2022-08-11T23:38:25.935Z,5.07
2022-08-11T23:41:10.997Z,4.32
2022-08-11T23:43:56.328Z,4.47
2022-08-11T23:46:42.199Z,4.28
2022-08-11T23:49:27.341Z,4.68
2022-08-11T23:52:12.598Z,4.80
2022-08-11T23:54:57.984Z,5.20
2022-08-11T23:57:47.895Z,4.35
